Terminal Aerodrome Forecast
Issued by NWS

Current Version | Previous Version | Text Only | Print | Product List | Glossary Off
Versions: 1 2 3 4 5 6 7 8 9 10 11 12 13 14 15 16 17 18 19

000
FTUS41 KILN 300900 AAB
TAFLCK
TAF AMD
KLCK 300904Z 3009/0106 22004KT 1SM BR OVC004
      TEMPO 3009/3012 1/2SM FG VV002
     FM301400 23007KT 4SM HZ BKN015
     FM301600 24010KT P6SM VCSH BKN035
     FM301800 24012G20KT P6SM VCTS BKN040CB
      TEMPO 3018/3022 3SM TSRA BR OVC020CB
     FM010000 25006KT P6SM SCT050 SCT100=

USA.gov is the U.S. government's official web portal to all federal, state and local government web resources and services.